TimeEST,TemperatureF,Dew PointF,Humidity,Sea Level PressureIn,VisibilityMPH,Wind Direction,Wind SpeedMPH,Gust SpeedMPH,PrecipitationIn,Events,Conditions,WindDirDegrees,DateUTC
12:53 AM,59.0,46.0,62,30.17,10.0,South,8.1,-,N/A,,Clear,180,2012-12-02 05:53:00
1:53 AM,59.0,46.0,62,30.17,10.0,South,5.8,-,N/A,,Overcast,190,2012-12-02 06:53:00
2:53 AM,57.9,46.0,65,30.15,10.0,South,8.1,-,N/A,,Mostly Cloudy,180,2012-12-02 07:53:00
3:53 AM,57.9,46.0,65,30.14,10.0,South,8.1,-,N/A,,Overcast,170,2012-12-02 08:53:00
4:53 AM,57.9,46.0,65,30.11,10.0,SSE,11.5,23.0,N/A,,Partly Cloudy,160,2012-12-02 09:53:00
5:53 AM,59.0,46.0,62,30.12,10.0,South,9.2,-,N/A,,Overcast,180,2012-12-02 10:53:00
6:53 AM,59.0,46.9,64,30.11,10.0,South,9.2,20.7,N/A,,Overcast,190,2012-12-02 11:53:00
7:53 AM,60.1,48.9,67,30.11,10.0,South,12.7,19.6,N/A,,Overcast,190,2012-12-02 12:53:00
8:53 AM,63.0,51.1,65,30.11,10.0,SSW,17.3,21.9,N/A,,Overcast,210,2012-12-02 13:53:00
9:53 AM,64.0,52.0,65,30.11,10.0,SSW,12.7,19.6,0.00,,Overcast,210,2012-12-02 14:53:00
10:53 AM,62.1,54.0,75,30.14,4.0,WSW,13.8,-,0.03,Rain,Rain,240,2012-12-02 15:53:00
11:01 AM,60.8,55.4,82,30.14,3.0,West,9.2,18.4,0.02,Rain,Rain,260,2012-12-02 16:01:00
11:53 AM,59.0,57.0,93,30.13,8.0,West,3.5,-,0.03,Rain,Light Rain,280,2012-12-02 16:53:00
11:59 AM,59.0,57.2,94,30.13,1.8,WSW,3.5,-,0.05,Rain,Heavy Rain,240,2012-12-02 16:59:00
12:05 PM,60.8,55.4,82,30.12,3.0,SW,4.6,-,0.05,Rain,Light Rain,220,2012-12-02 17:05:00
12:27 PM,60.8,57.2,88,30.11,10.0,SW,5.8,-,0.05,,Overcast,230,2012-12-02 17:27:00
12:53 PM,62.1,57.0,84,30.11,10.0,SW,8.1,-,0.06,,Overcast,230,2012-12-02 17:53:00
1:53 PM,63.0,57.0,81,30.10,10.0,SSW,6.9,-,0.00,Rain,Light Rain,210,2012-12-02 18:53:00
2:19 PM,62.6,57.2,82,30.09,10.0,SSW,4.6,-,0.00,Rain,Light Rain,200,2012-12-02 19:19:00
2:53 PM,64.0,57.0,78,30.09,10.0,SW,6.9,-,0.00,,Overcast,220,2012-12-02 19:53:00
3:53 PM,64.9,57.9,78,30.09,10.0,SW,11.5,23.0,N/A,,Overcast,230,2012-12-02 20:53:00
4:53 PM,64.0,57.9,80,30.11,10.0,SW,8.1,17.3,N/A,,Overcast,230,2012-12-02 21:53:00
5:53 PM,64.0,57.9,80,30.12,10.0,SSW,6.9,-,N/A,,Overcast,210,2012-12-02 22:53:00
6:53 PM,64.0,57.9,80,30.13,10.0,SSW,9.2,-,N/A,,Overcast,210,2012-12-02 23:53:00
7:53 PM,64.0,57.9,80,30.13,10.0,SSW,9.2,-,N/A,,Overcast,210,2012-12-03 00:53:00
8:53 PM,64.0,57.9,80,30.13,10.0,SSW,4.6,-,N/A,,Overcast,200,2012-12-03 01:53:00
9:53 PM,64.0,57.9,80,30.14,10.0,SSW,4.6,-,0.00,,Overcast,200,2012-12-03 02:53:00
10:53 PM,64.0,57.9,80,30.14,10.0,SSW,6.9,-,0.00,,Overcast,200,2012-12-03 03:53:00
11:34 PM,64.4,57.2,77,30.15,10.0,SSW,6.9,-,N/A,,Overcast,200,2012-12-03 04:34:00
11:41 PM,64.4,57.2,77,30.15,10.0,SSW,6.9,-,N/A,,Overcast,200,2012-12-03 04:41:00
11:53 PM,64.0,57.9,80,30.15,10.0,SSW,6.9,-,N/A,,Overcast,200,2012-12-03 04:53:00